Online since October of 2007


Active alerts


No alerts

Bigbaywx more information Bigbaywx


mount mesnard more information Mount Mesnard


visit our other weather sites:

Template documentation
and downloads

And another site


CBI


nearby metar reports

   
KSAW - Sawyer, Michigan
updated: Jun 19 2019 7:45 pm
clear  
clear  
   wind: ne 9.2 mph
wind: ne 9.2 mph
temperature: 64.4°F
dew point: 44.6°F
humidity: 49%
barometer: 29.83 inHg
clouds: clear
visibility: 10 mi
cloud details: clear
KSAW 192345Z 04008KT 10SM SKC 18/07 A2983
KESC - Escanaba, Michigan
updated: Jun 19 2019 6:56 pm
few clouds  
few clouds  
   wind: calm
wind: calm
temperature: 66.2°F
dew point: 55.4°F
humidity: 68%
barometer: 29.79 inHg
clouds: few clouds
visibility: 10 mi
cloud details: few clouds 1829 m
KESC 192256Z AUTO 00000KT 10SM FEW060 19/13 A2979 RMK AO2 SLP088 T01890128
KIMT - Iron Mountain, MI
updated: Jun 19 2019 6:54 pm
clear  
clear  
   wind: nne 11.5 mph<br />Gust to 11.5 mph
wind: nne 11.5 mph
Gust to 11.5 mph
temperature: 69.8°F
dew point: 44.6°F
humidity: 40%
barometer: 29.79 inHg
clouds: clear
visibility: 10 mi
cloud details: clear
KIMT 192254Z AUTO 03010G16KT 10SM CLR 21/07 A2979 RMK AO2 SLP090 T02110067
KGRB - Green Bay, WI
updated: Jun 19 2019 6:53 pm
clear  
clear  
   wind: ne 10.4 mph
wind: ne 10.4 mph
temperature: 69.8°F
dew point: 53.6°F
humidity: 57%
barometer: 29.77 inHg
clouds: clear
visibility: 10 mi
cloud details: clear
KGRB 192253Z 05009KT 10SM CLR 21/12 A2977 RMK AO2 SLP079 T02060122
KDET - Detroit, MI
updated: Jun 19 2019 6:53 pm
few clouds  
few clouds  
   wind: ese 8.1 mph
wind: ese 8.1 mph
temperature: 77°F
dew point: 60.8°F
humidity: 57%
barometer: 29.68 inHg
clouds: few clouds
visibility: 10 mi
cloud details: few clouds 2134 m
KDET 192253Z 12007KT 10SM FEW070 25/16 A2968 RMK AO2 SLP049 T02500161
 

script developed by  Saratoga-weather.org adapted for the template by  Weerstation Leuven

you find our weather info also at:

Weather Underground

midwestern weather network

WeatherlinkIP

Citizen Weather Observer Program (CWOP)

equipment we use:

weather-station
Davis VP2

weather-program
Davis Weatherlink.Com

Davis VP2

Davis Weatherlink.Com